Time;durP1;ratioP1;P1;durP2;ratioP2;P2;SDS_P1;SDS_P2;PMS_P1;PMS_P2;Temp;Humidity;BMP_temperature;BMP_pressure;BME280_temperature;BME280_humidity;BME280_pressure;Samples;Min_cycle;Max_cycle;Signal;HPM_P1;HPM_P2
2022/03/27 00:00:52;;;;;;;;;;;20.90;24.80;;;;;;5164865;27;20728;-59
2022/03/27 00:03:18;;;;;;;;;;;21.20;24.50;;;;;;5159440;27;19923;-59
2022/03/27 00:05:44;;;;;;;;;;;20.80;24.80;;;;;;5167994;27;19927;-60
2022/03/27 00:08:10;;;;;;;;;;;21.20;24.40;;;;;;5162867;27;19929;-58
2022/03/27 00:11:23;;;;;;;;;;;20.90;24.70;;;;;;5162812;27;19923;-60
2022/03/27 00:13:21;;;;;;;;;;;21.30;24.40;;;;;;5169518;27;19927;-59
2022/03/27 00:15:47;;;;;;;;;;;21.00;24.70;;;;;;5166302;27;20327;-60
2022/03/27 00:18:13;;;;;;;;;;;21.10;24.50;;;;;;5166097;27;20314;-60
2022/03/27 00:20:38;;;;;;;;;;;21.00;24.70;;;;;;5167914;27;19976;-60
2022/03/27 00:23:04;;;;;;;;;;;21.20;24.40;;;;;;5165607;27;19934;-57
2022/03/27 00:25:31;;;;;;;;;;;21.10;24.60;;;;;;5169287;27;20017;-59
2022/03/27 00:27:56;;;;;;;;;;;21.00;24.60;;;;;;5169832;27;20029;-59
2022/03/27 00:30:22;;;;;;;;;;;21.00;24.60;;;;;;5147666;27;19991;-58
2022/03/27 00:32:48;;;;;;;;;;;21.10;24.50;;;;;;5171761;27;20002;-57
2022/03/27 00:35:15;;;;;;;;;;;21.10;24.50;;;;;;5166549;27;19923;-58
2022/03/27 00:37:40;;;;;;;;;;;21.00;24.60;;;;;;5165018;27;20010;-51
2022/03/27 00:40:08;;;;;;;;;;;21.20;24.50;;;;;;5168366;27;20019;-56
2022/03/27 00:42:33;;;;;;;;;;;21.00;24.70;;;;;;5166044;27;19923;-61
2022/03/27 00:44:59;;;;;;;;;;;21.20;24.40;;;;;;5166327;27;19966;-57
2022/03/27 00:47:25;;;;;;;;;;;20.90;24.80;;;;;;5171565;27;19937;-56
2022/03/27 00:49:51;;;;;;;;;;;21.30;24.40;;;;;;5166131;27;20305;-59
2022/03/27 00:52:17;;;;;;;;;;;20.90;24.80;;;;;;5153024;27;20370;-59
2022/03/27 00:54:43;;;;;;;;;;;21.10;24.60;;;;;;5165638;27;20338;-59
2022/03/27 00:57:09;;;;;;;;;;;21.00;24.80;;;;;;5162347;27;19929;-57
2022/03/27 00:59:35;;;;;;;;;;;21.10;24.60;;;;;;5151226;27;20371;-60
2022/03/27 01:02:01;;;;;;;;;;;21.00;24.80;;;;;;5165718;27;19922;-61
2022/03/27 01:04:27;;;;;;;;;;;21.10;24.60;;;;;;5165740;27;20162;-58
2022/03/27 01:06:53;;;;;;;;;;;21.00;24.80;;;;;;5171299;27;20293;-58
2022/03/27 01:09:37;;;;;;;;;;;21.10;24.70;;;;;;5129759;27;19961;-59
2022/03/27 01:12:14;;;;;;;;;;;21.00;24.90;;;;;;5165908;27;20029;-59
2022/03/27 01:14:40;;;;;;;;;;;20.80;25.00;;;;;;5169594;27;20378;-55
2022/03/27 01:17:10;;;;;;;;;;;21.20;24.60;;;;;;5161909;27;19975;-59
2022/03/27 01:19:38;;;;;;;;;;;20.90;24.90;;;;;;5170635;27;19929;-56
2022/03/27 01:22:04;;;;;;;;;;;21.20;24.60;;;;;;5167290;27;19967;-60
2022/03/27 01:24:30;;;;;;;;;;;21.00;24.80;;;;;;5165168;27;20344;-59
2022/03/27 01:26:56;;;;;;;;;;;21.10;24.70;;;;;;5170723;27;19922;-59
2022/03/27 01:29:22;;;;;;;;;;;20.80;25.10;;;;;;5165324;27;19934;-58
2022/03/27 01:31:47;;;;;;;;;;;21.20;24.60;;;;;;5165009;27;19926;-58
2022/03/27 01:34:13;;;;;;;;;;;20.90;24.90;;;;;;5167187;27;20330;-56
2022/03/27 01:36:39;;;;;;;;;;;21.10;24.60;;;;;;5163791;27;20011;-58
2022/03/27 01:39:12;;;;;;;;;;;21.10;24.70;;;;;;5165137;27;19975;-55
2022/03/27 01:41:38;;;;;;;;;;;21.10;24.70;;;;;;5170201;27;20304;-57
2022/03/27 01:44:04;;;;;;;;;;;21.20;24.60;;;;;;5165005;27;19927;-59
2022/03/27 01:46:31;;;;;;;;;;;21.00;24.90;;;;;;5170315;27;19927;-59
2022/03/27 01:48:57;;;;;;;;;;;21.20;24.60;;;;;;5164763;27;19986;-59
2022/03/27 01:51:22;;;;;;;;;;;20.90;24.90;;;;;;5163460;27;20356;-59
2022/03/27 01:53:48;;;;;;;;;;;21.10;24.70;;;;;;5166252;27;19923;-58
2022/03/27 01:56:14;;;;;;;;;;;21.00;24.80;;;;;;5164849;27;19922;-56
2022/03/27 01:58:40;;;;;;;;;;;21.20;24.50;;;;;;5164865;27;20465;-58
2022/03/27 02:01:08;;;;;;;;;;;20.90;24.90;;;;;;5170010;27;19923;-59
2022/03/27 02:03:34;;;;;;;;;;;21.10;24.60;;;;;;5164867;27;20048;-58
2022/03/27 02:06:02;;;;;;;;;;;20.80;25.10;;;;;;5169903;27;19938;-48
2022/03/27 02:08:28;;;;;;;;;;;21.20;24.60;;;;;;5164568;27;19927;-57
2022/03/27 02:10:53;;;;;;;;;;;20.90;24.90;;;;;;5161587;27;19927;-57
2022/03/27 02:13:19;;;;;;;;;;;21.30;24.60;;;;;;5168076;27;20018;-57
2022/03/27 02:15:46;;;;;;;;;;;21.00;25.00;;;;;;5164587;27;19923;-60
2022/03/27 02:18:12;;;;;;;;;;;21.20;24.70;;;;;;5164583;27;20503;-57
2022/03/27 02:20:39;;;;;;;;;;;20.80;25.10;;;;;;5169706;27;19951;-57
2022/03/27 02:23:06;;;;;;;;;;;21.20;24.70;;;;;;5164159;27;19937;-59
2022/03/27 02:25:32;;;;;;;;;;;20.90;25.10;;;;;;5165941;27;20017;-56
2022/03/27 02:27:58;;;;;;;;;;;21.20;24.80;;;;;;5167410;27;19926;-56
2022/03/27 02:30:24;;;;;;;;;;;21.00;25.00;;;;;;5141944;27;19923;-51
2022/03/27 02:32:49;;;;;;;;;;;21.10;24.90;;;;;;5169327;27;20662;-54
2022/03/27 02:35:15;;;;;;;;;;;21.10;25.00;;;;;;5163538;27;19962;-50
2022/03/27 02:37:41;;;;;;;;;;;21.00;25.10;;;;;;5163560;27;20368;-53
2022/03/27 02:40:07;;;;;;;;;;;21.20;24.90;;;;;;5169404;27;19927;-58
2022/03/27 02:42:33;;;;;;;;;;;21.00;25.10;;;;;;5163690;27;19923;-57
2022/03/27 02:44:59;;;;;;;;;;;21.10;25.00;;;;;;5163771;27;19977;-58
2022/03/27 02:47:24;;;;;;;;;;;21.00;25.10;;;;;;5166968;27;19922;-56
2022/03/27 02:49:50;;;;;;;;;;;21.30;24.80;;;;;;5161482;27;19922;-59
2022/03/27 02:52:16;;;;;;;;;;;20.80;25.30;;;;;;5169630;27;19930;-58
2022/03/27 02:54:43;;;;;;;;;;;21.20;24.90;;;;;;5163918;27;19929;-59
2022/03/27 02:57:08;;;;;;;;;;;20.90;25.10;;;;;;5145271;27;20369;-59
2022/03/27 02:59:37;;;;;;;;;;;21.30;24.80;;;;;;5150490;27;19923;-58
2022/03/27 03:02:04;;;;;;;;;;;20.90;25.20;;;;;;5163398;27;19945;-54
2022/03/27 03:04:30;;;;;;;;;;;21.20;24.80;;;;;;5163390;27;20151;-57
2022/03/27 03:06:56;;;;;;;;;;;20.90;25.10;;;;;;5165451;27;19922;-49
2022/03/27 03:09:22;;;;;;;;;;;21.20;24.80;;;;;;5162535;27;20063;-59
2022/03/27 03:11:47;;;;;;;;;;;21.00;24.90;;;;;;5168816;27;19987;-61
2022/03/27 03:14:13;;;;;;;;;;;21.20;24.70;;;;;;5163478;27;19929;-58
2022/03/27 03:16:39;;;;;;;;;;;20.90;25.10;;;;;;5144674;27;19966;-54
2022/03/27 03:19:05;;;;;;;;;;;21.20;24.70;;;;;;5168909;27;20374;-58
2022/03/27 03:21:31;;;;;;;;;;;20.80;25.20;;;;;;5162852;27;20018;-59
2022/03/27 03:23:56;;;;;;;;;;;21.20;24.80;;;;;;5162116;27;19923;-55
2022/03/27 03:26:22;;;;;;;;;;;21.00;24.80;;;;;;5165079;27;19923;-61
2022/03/27 03:28:48;;;;;;;;;;;21.10;24.80;;;;;;5163340;27;19923;-53
2022/03/27 03:31:14;;;;;;;;;;;21.00;24.90;;;;;;5167592;27;19945;-56
2022/03/27 03:33:40;;;;;;;;;;;21.10;24.80;;;;;;5145951;27;19933;-60
2022/03/27 03:36:07;;;;;;;;;;;21.00;24.80;;;;;;5163234;27;19923;-51
2022/03/27 03:38:33;;;;;;;;;;;21.10;24.70;;;;;;5168482;27;19923;-59
2022/03/27 03:40:59;;;;;;;;;;;21.10;24.70;;;;;;5162661;27;20358;-56
2022/03/27 03:43:25;;;;;;;;;;;21.20;24.70;;;;;;5160021;27;19926;-58
2022/03/27 03:45:51;;;;;;;;;;;21.00;24.90;;;;;;5166909;27;19979;-56
2022/03/27 03:48:16;;;;;;;;;;;21.20;24.60;;;;;;5166215;27;19971;-59
2022/03/27 03:50:42;;;;;;;;;;;21.00;24.90;;;;;;5168922;27;19965;-56
2022/03/27 03:53:08;;;;;;;;;;;21.10;24.90;;;;;;5171500;27;19987;-57
2022/03/27 03:55:34;;;;;;;;;;;21.20;24.60;;;;;;5148668;27;19927;-58
2022/03/27 03:58:01;;;;;;;;;;;21.00;24.90;;;;;;5172787;27;19994;-57
2022/03/27 04:00:26;;;;;;;;;;;21.20;24.70;;;;;;5166187;27;20426;-58
2022/03/27 04:02:52;;;;;;;;;;;21.00;24.90;;;;;;5163307;27;19927;-58
2022/03/27 04:05:18;;;;;;;;;;;21.20;24.70;;;;;;5172209;27;20399;-59
2022/03/27 04:07:44;;;;;;;;;;;20.80;25.00;;;;;;5166842;27;20374;-59
2022/03/27 04:10:10;;;;;;;;;;;21.10;24.70;;;;;;5166732;27;19937;-61
2022/03/27 04:12:36;;;;;;;;;;;21.10;24.90;;;;;;5172248;27;19927;-58
2022/03/27 04:15:02;;;;;;;;;;;21.10;24.80;;;;;;5166469;27;20301;-57
2022/03/27 04:17:28;;;;;;;;;;;21.00;25.00;;;;;;5171759;27;19987;-52
2022/03/27 04:19:54;;;;;;;;;;;21.30;24.70;;;;;;5164445;27;19926;-57
2022/03/27 04:22:19;;;;;;;;;;;20.90;25.20;;;;;;5163620;27;19923;-58
2022/03/27 04:24:45;;;;;;;;;;;21.10;25.00;;;;;;5172303;27;19930;-58
2022/03/27 04:27:11;;;;;;;;;;;21.00;25.20;;;;;;5166436;27;19965;-50
2022/03/27 04:29:37;;;;;;;;;;;21.20;25.00;;;;;;5166435;27;20290;-58
2022/03/27 04:32:03;;;;;;;;;;;21.00;25.20;;;;;;5171918;27;20396;-50
2022/03/27 04:34:28;;;;;;;;;;;21.20;25.00;;;;;;5166272;27;20331;-57
2022/03/27 04:36:54;;;;;;;;;;;21.10;25.20;;;;;;5171311;27;20373;-57
2022/03/27 04:39:20;;;;;;;;;;;21.10;25.20;;;;;;5162557;27;20404;-59
2022/03/27 04:41:46;;;;;;;;;;;21.00;25.40;;;;;;5165042;27;19929;-49
2022/03/27 04:44:12;;;;;;;;;;;21.00;25.30;;;;;;5171668;27;19923;-55
2022/03/27 04:46:38;;;;;;;;;;;21.30;25.20;;;;;;5147463;27;19929;-61
2022/03/27 04:49:04;;;;;;;;;;;21.00;25.40;;;;;;5165886;27;20425;-58
2022/03/27 04:51:29;;;;;;;;;;;20.90;25.60;;;;;;5171344;27;19933;-58
2022/03/27 04:53:55;;;;;;;;;;;21.10;25.30;;;;;;5165763;27;19927;-58
2022/03/27 04:56:21;;;;;;;;;;;21.10;25.30;;;;;;5169825;27;19926;-53
2022/03/27 04:58:47;;;;;;;;;;;21.20;25.20;;;;;;5161768;27;19923;-55
2022/03/27 05:01:13;;;;;;;;;;;21.10;25.10;;;;;;5165764;27;19922;-58
2022/03/27 05:03:39;;;;;;;;;;;21.00;25.40;;;;;;5171275;27;19923;-52
2022/03/27 05:06:05;;;;;;;;;;;21.10;25.20;;;;;;5165796;27;19966;-58
2022/03/27 05:08:33;;;;;;;;;;;21.10;25.20;;;;;;5166016;27;20174;-57
2022/03/27 05:10:58;;;;;;;;;;;21.00;25.30;;;;;;5171205;27;19923;-59
2022/03/27 05:13:24;;;;;;;;;;;21.20;25.10;;;;;;5165525;27;20277;-59
2022/03/27 05:15:50;;;;;;;;;;;21.00;25.40;;;;;;5165124;27;20342;-53
2022/03/27 05:18:16;;;;;;;;;;;21.20;25.20;;;;;;5167433;27;19923;-58
2022/03/27 05:20:42;;;;;;;;;;;21.10;25.30;;;;;;5165612;27;20025;-58
2022/03/27 05:23:08;;;;;;;;;;;21.00;25.40;;;;;;5170981;27;20002;-51
2022/03/27 05:25:40;;;;;;;;;;;21.20;25.20;;;;;;5165734;27;20009;-60
2022/03/27 05:28:07;;;;;;;;;;;20.90;25.50;;;;;;5165418;27;19927;-53
2022/03/27 05:30:32;;;;;;;;;;;21.10;25.30;;;;;;5170730;27;19956;-60
2022/03/27 05:32:58;;;;;;;;;;;21.00;25.40;;;;;;5145510;27;20393;-51
2022/03/27 05:35:24;;;;;;;;;;;21.20;25.20;;;;;;5142835;27;20360;-58
2022/03/27 05:37:50;;;;;;;;;;;21.00;25.40;;;;;;5170244;27;19927;-58
2022/03/27 05:40:18;;;;;;;;;;;21.20;25.20;;;;;;5165078;27;19949;-60
2022/03/27 05:42:44;;;;;;;;;;;21.10;25.40;;;;;;5170548;27;20278;-52
2022/03/27 05:45:10;;;;;;;;;;;21.10;25.30;;;;;;5164902;27;20451;-57
2022/03/27 05:47:37;;;;;;;;;;;21.10;25.30;;;;;;5164631;27;20018;-55
2022/03/27 05:50:04;;;;;;;;;;;21.00;25.30;;;;;;5170158;27;20309;-55
2022/03/27 05:52:30;;;;;;;;;;;21.10;25.30;;;;;;5162104;27;19950;-57
2022/03/27 05:54:56;;;;;;;;;;;21.10;25.30;;;;;;5162277;27;20238;-55
2022/03/27 05:57:22;;;;;;;;;;;21.00;25.20;;;;;;5170300;27;20037;-59
2022/03/27 05:59:47;;;;;;;;;;;21.10;25.30;;;;;;5146256;27;19926;-50
2022/03/27 06:02:13;;;;;;;;;;;21.00;25.20;;;;;;5168600;27;19929;-56
2022/03/27 06:04:39;;;;;;;;;;;21.10;25.20;;;;;;5166323;27;19923;-57
2022/03/27 06:07:05;;;;;;;;;;;21.10;25.10;;;;;;5164445;27;19979;-60
2022/03/27 06:09:32;;;;;;;;;;;21.00;25.30;;;;;;5169298;27;19950;-58
2022/03/27 06:11:58;;;;;;;;;;;21.10;25.20;;;;;;5141095;27;19970;-57
2022/03/27 06:14:24;;;;;;;;;;;21.10;25.20;;;;;;5163638;27;19923;-58
2022/03/27 06:16:50;;;;;;;;;;;21.20;25.10;;;;;;5170185;27;19923;-60
2022/03/27 06:19:16;;;;;;;;;;;21.10;25.20;;;;;;5164443;27;19929;-50
2022/03/27 06:21:43;;;;;;;;;;;21.30;25.00;;;;;;5165283;27;19945;-58
2022/03/27 06:24:09;;;;;;;;;;;21.10;25.30;;;;;;5169888;27;19923;-57
2022/03/27 06:26:35;;;;;;;;;;;21.00;25.40;;;;;;5145540;27;19930;-59
2022/03/27 06:29:01;;;;;;;;;;;21.00;25.40;;;;;;5167836;27;19927;-53
2022/03/27 06:31:26;;;;;;;;;;;21.10;25.30;;;;;;5160876;27;19923;-58
2022/03/27 06:33:52;;;;;;;;;;;21.10;25.30;;;;;;5163825;27;20014;-57
2022/03/27 06:36:18;;;;;;;;;;;20.90;25.40;;;;;;5169467;27;19926;-59
2022/03/27 06:38:44;;;;;;;;;;;21.10;25.40;;;;;;5163885;27;19931;-56
2022/03/27 06:41:10;;;;;;;;;;;21.20;25.30;;;;;;5163764;27;20049;-59
2022/03/27 06:43:37;;;;;;;;;;;21.10;25.40;;;;;;5169551;27;19970;-58
2022/03/27 06:46:03;;;;;;;;;;;21.00;25.50;;;;;;5163478;27;20389;-57
2022/03/27 06:48:29;;;;;;;;;;;21.20;25.30;;;;;;5166174;27;19931;-58
2022/03/27 06:50:55;;;;;;;;;;;20.90;25.60;;;;;;5162190;27;19926;-53
2022/03/27 06:53:24;;;;;;;;;;;21.10;25.50;;;;;;5164247;27;20344;-58
2022/03/27 06:55:50;;;;;;;;;;;21.00;25.70;;;;;;5169279;27;19929;-49
2022/03/27 06:58:16;;;;;;;;;;;21.20;25.50;;;;;;5164158;27;19931;-58
2022/03/27 07:03:26;;;;;;;;;;;21.20;25.40;;;;;;5168835;27;20409;-54
2022/03/27 07:05:52;;;;;;;;;;;21.00;25.50;;;;;;5162057;27;19951;-57
2022/03/27 07:08:19;;;;;;;;;;;21.20;25.50;;;;;;5159839;27;20223;-49
2022/03/27 07:10:45;;;;;;;;;;;21.10;25.50;;;;;;5168866;27;19922;-51
2022/03/27 07:13:12;;;;;;;;;;;21.20;25.40;;;;;;5163454;27;19927;-58
2022/03/27 07:15:37;;;;;;;;;;;20.90;25.60;;;;;;5168956;27;20382;-56
2022/03/27 07:18:03;;;;;;;;;;;21.20;25.40;;;;;;5163323;27;19922;-58
2022/03/27 07:20:30;;;;;;;;;;;21.00;25.60;;;;;;5163449;27;19927;-56
2022/03/27 07:22:57;;;;;;;;;;;21.10;25.30;;;;;;5168072;27;19923;-59
2022/03/27 07:25:23;;;;;;;;;;;21.00;25.60;;;;;;5160264;27;19922;-54
2022/03/27 07:27:49;;;;;;;;;;;21.10;25.60;;;;;;5161265;27;19926;-58
2022/03/27 07:30:15;;;;;;;;;;;21.20;25.60;;;;;;5168616;27;19929;-61
2022/03/27 07:32:41;;;;;;;;;;;21.10;25.70;;;;;;5163191;27;19926;-56
2022/03/27 07:35:07;;;;;;;;;;;21.00;25.90;;;;;;5167659;27;20393;-55
2022/03/27 07:37:34;;;;;;;;;;;21.20;25.70;;;;;;5164987;27;19923;-59
2022/03/27 07:40:03;;;;;;;;;;;21.00;25.90;;;;;;5163208;27;19926;-61
2022/03/27 07:42:32;;;;;;;;;;;21.20;25.80;;;;;;5167613;27;19931;-58
2022/03/27 07:44:58;;;;;;;;;;;21.00;26.10;;;;;;5159729;27;20453;-58
2022/03/27 07:47:23;;;;;;;;;;;21.00;26.10;;;;;;5162909;27;19927;-58
2022/03/27 07:49:49;;;;;;;;;;;21.00;26.30;;;;;;5168836;27;19962;-59
2022/03/27 07:52:15;;;;;;;;;;;21.10;26.20;;;;;;5144584;27;19929;-59
2022/03/27 07:54:41;;;;;;;;;;;21.00;26.30;;;;;;5144635;27;20450;-61
2022/03/27 07:57:07;;;;;;;;;;;21.10;26.30;;;;;;5168327;27;19922;-60
2022/03/27 07:59:33;;;;;;;;;;;21.10;26.40;;;;;;5162612;27;19922;-59
2022/03/27 08:02:00;;;;;;;;;;;21.00;26.40;;;;;;5165974;27;19930;-59
2022/03/27 08:04:25;;;;;;;;;;;21.10;26.40;;;;;;5159989;27;19949;-61
2022/03/27 08:06:51;;;;;;;;;;;21.20;26.40;;;;;;5162727;27;19931;-58
2022/03/27 08:09:17;;;;;;;;;;;21.10;26.60;;;;;;5168427;27;19990;-61
2022/03/27 08:11:43;;;;;;;;;;;21.10;26.50;;;;;;5162967;27;19929;-59
2022/03/27 08:14:09;;;;;;;;;;;21.10;26.70;;;;;;5162824;27;20528;-59
2022/03/27 08:16:35;;;;;;;;;;;20.90;26.90;;;;;;5149443;27;20498;-60
2022/03/27 08:19:01;;;;;;;;;;;21.30;26.50;;;;;;5162390;27;19971;-56
2022/03/27 08:21:28;;;;;;;;;;;20.90;27.00;;;;;;5164164;27;20022;-58
2022/03/27 08:23:53;;;;;;;;;;;21.30;26.60;;;;;;5162112;27;19931;-59
2022/03/27 08:29:04;;;;;;;;;;;21.20;26.70;;;;;;5168246;27;20385;-57
2022/03/27 08:31:31;;;;;;;;;;;21.20;26.70;;;;;;5162643;27;19950;-58
2022/03/27 08:33:57;;;;;;;;;;;21.10;26.70;;;;;;5163396;27;20063;-52
2022/03/27 08:36:23;;;;;;;;;;;21.10;26.70;;;;;;5171757;27;20014;-55
2022/03/27 08:38:49;;;;;;;;;;;21.00;26.90;;;;;;5164735;27;19951;-53
2022/03/27 08:41:15;;;;;;;;;;;21.10;26.80;;;;;;5163252;27;20515;-59
2022/03/27 08:43:41;;;;;;;;;;;21.30;26.60;;;;;;5172011;27;19931;-56
2022/03/27 08:46:06;;;;;;;;;;;20.90;27.10;;;;;;5166219;27;19923;-58
2022/03/27 08:48:33;;;;;;;;;;;21.20;26.80;;;;;;5171618;27;19934;-48
2022/03/27 08:51:09;;;;;;;;;;;21.10;27.10;;;;;;5147356;27;19927;-58
2022/03/27 08:53:40;;;;;;;;;;;21.20;27.00;;;;;;5147671;27;20290;-57
2022/03/27 08:56:06;;;;;;;;;;;21.10;27.20;;;;;;5170802;27;19927;-58
2022/03/27 08:58:37;;;;;;;;;;;21.00;27.30;;;;;;5162143;27;19971;-58
2022/03/27 09:01:04;;;;;;;;;;;21.20;27.30;;;;;;5165180;27;19927;-58
2022/03/27 09:03:30;;;;;;;;;;;21.10;27.40;;;;;;5152962;27;19927;-59
2022/03/27 09:05:56;;;;;;;;;;;21.20;27.30;;;;;;5165635;27;19923;-54
2022/03/27 09:08:22;;;;;;;;;;;21.00;27.60;;;;;;5166151;27;19923;-56
2022/03/27 09:10:48;;;;;;;;;;;21.20;27.50;;;;;;5171038;27;19923;-56
2022/03/27 09:13:14;;;;;;;;;;;21.10;27.70;;;;;;5165276;27;19971;-50
2022/03/27 09:15:40;;;;;;;;;;;21.20;27.70;;;;;;5169199;27;19987;-60
2022/03/27 09:18:10;;;;;;;;;;;21.10;27.70;;;;;;5162352;27;19923;-56
2022/03/27 09:20:39;;;;;;;;;;;21.20;27.70;;;;;;5165727;27;20025;-59
2022/03/27 09:23:06;;;;;;;;;;;21.10;27.90;;;;;;5171168;27;20377;-61
2022/03/27 09:25:41;;;;;;;;;;;21.20;27.70;;;;;;5146993;27;19967;-57
2022/03/27 09:28:07;;;;;;;;;;;21.20;27.70;;;;;;5165620;27;20364;-59
2022/03/27 09:30:36;;;;;;;;;;;21.20;27.80;;;;;;5170826;27;19922;-54
2022/03/27 09:33:01;;;;;;;;;;;21.00;27.90;;;;;;5164744;27;20009;-58
2022/03/27 09:35:27;;;;;;;;;;;21.30;27.40;;;;;;5161431;27;20157;-55
2022/03/27 09:37:53;;;;;;;;;;;21.00;27.80;;;;;;5169693;27;19926;-58
2022/03/27 09:40:19;;;;;;;;;;;21.30;27.60;;;;;;5165057;27;19923;-57
2022/03/27 09:42:47;;;;;;;;;;;21.20;27.50;;;;;;5170667;27;19929;-58
2022/03/27 09:45:12;;;;;;;;;;;21.00;27.70;;;;;;5146450;27;19978;-59
2022/03/27 09:47:39;;;;;;;;;;;21.20;27.60;;;;;;5164897;27;19944;-57
2022/03/27 09:50:04;;;;;;;;;;;21.00;27.90;;;;;;5170405;27;19929;-59
2022/03/27 09:52:30;;;;;;;;;;;21.20;27.70;;;;;;5163237;27;19926;-59
2022/03/27 09:54:57;;;;;;;;;;;21.20;27.70;;;;;;5161257;27;19975;-50
2022/03/27 09:57:24;;;;;;;;;;;21.00;27.80;;;;;;5170239;27;19922;-59
2022/03/27 09:59:50;;;;;;;;;;;21.20;27.70;;;;;;5164724;27;19926;-55
2022/03/27 10:02:19;;;;;;;;;;;21.10;27.90;;;;;;5167505;27;20334;-58
2022/03/27 10:05:01;;;;;;;;;;;21.10;27.80;;;;;;5169102;27;19933;-58
2022/03/27 10:07:33;;;;;;;;;;;21.20;27.70;;;;;;5164756;27;19970;-60
2022/03/27 10:09:59;;;;;;;;;;;21.20;27.80;;;;;;5167713;27;20025;-56
2022/03/27 10:12:28;;;;;;;;;;;21.10;28.00;;;;;;5163093;27;19923;-59
2022/03/27 10:14:55;;;;;;;;;;;21.20;27.90;;;;;;5163235;27;19933;-60
2022/03/27 10:17:21;;;;;;;;;;;21.20;27.90;;;;;;5169854;27;20013;-59
2022/03/27 10:19:52;;;;;;;;;;;21.20;27.90;;;;;;5145811;27;19923;-58
2022/03/27 10:22:20;;;;;;;;;;;21.20;28.00;;;;;;5164073;27;19926;-60
2022/03/27 10:24:46;;;;;;;;;;;21.20;28.10;;;;;;5169774;27;19948;-57
2022/03/27 10:27:12;;;;;;;;;;;21.00;28.20;;;;;;5145530;27;19929;-60
2022/03/27 10:29:39;;;;;;;;;;;21.30;27.90;;;;;;5162753;27;20554;-61
2022/03/27 10:32:05;;;;;;;;;;;21.30;27.80;;;;;;5147561;27;19922;-59
2022/03/27 10:34:31;;;;;;;;;;;21.20;27.90;;;;;;5145533;27;20009;-59
2022/03/27 10:37:01;;;;;;;;;;;21.20;28.00;;;;;;5150958;27;20369;-59
2022/03/27 10:39:56;;;;;;;;;;;21.20;27.80;;;;;;5164812;27;19929;-57
2022/03/27 10:42:25;;;;;;;;;;;21.30;27.60;;;;;;5071037;27;19939;-58
2022/03/27 10:45:01;;;;;;;;;;;21.30;27.70;;;;;;5166602;27;20292;-59
2022/03/27 10:47:30;;;;;;;;;;;21.30;27.80;;;;;;5149867;27;19946;-58
2022/03/27 10:50:05;;;;;;;;;;;21.30;27.80;;;;;;5141086;27;20426;-61
2022/03/27 10:52:36;;;;;;;;;;;21.30;27.80;;;;;;5167935;27;19927;-55
2022/03/27 10:55:09;;;;;;;;;;;21.30;27.90;;;;;;5166645;27;20018;-59
2022/03/27 10:57:36;;;;;;;;;;;21.30;27.90;;;;;;5162813;27;20009;-58
2022/03/27 11:00:06;;;;;;;;;;;21.30;27.90;;;;;;5168883;27;19923;-59
2022/03/27 11:02:52;;;;;;;;;;;21.30;28.00;;;;;;5163509;27;19929;-61
2022/03/27 11:05:36;;;;;;;;;;;21.30;28.10;;;;;;5163221;27;20347;-60
2022/03/27 11:08:34;;;;;;;;;;;21.40;27.80;;;;;;5163555;27;20362;-57
2022/03/27 11:11:01;;;;;;;;;;;21.40;27.90;;;;;;5168635;27;19922;-60
2022/03/27 11:13:26;;;;;;;;;;;21.40;27.90;;;;;;5163622;27;19923;-59
2022/03/27 11:16:02;;;;;;;;;;;21.40;27.80;;;;;;5164613;27;19923;-58
2022/03/27 11:18:34;;;;;;;;;;;21.60;27.80;;;;;;5168662;27;19934;-57
2022/03/27 11:21:00;;;;;;;;;;;21.50;27.90;;;;;;5163035;27;20284;-57
2022/03/27 11:23:26;;;;;;;;;;;21.60;27.90;;;;;;5168598;27;19930;-60
2022/03/27 11:25:51;;;;;;;;;;;21.60;28.00;;;;;;5160387;27;20034;-60
2022/03/27 11:28:18;;;;;;;;;;;21.50;28.00;;;;;;5160901;27;19923;-59
2022/03/27 11:30:50;;;;;;;;;;;21.50;28.00;;;;;;5168749;27;19981;-62
2022/03/27 11:33:19;;;;;;;;;;;21.50;28.00;;;;;;5163108;27;20014;-59
2022/03/27 11:36:00;;;;;;;;;;;21.50;28.20;;;;;;5163168;27;20377;-58
2022/03/27 11:38:26;;;;;;;;;;;21.50;28.10;;;;;;5168629;27;19968;-55
2022/03/27 11:40:52;;;;;;;;;;;21.60;27.80;;;;;;5162919;27;19927;-57
2022/03/27 11:43:27;;;;;;;;;;;21.70;27.20;;;;;;5162245;27;20161;-59
2022/03/27 11:45:54;;;;;;;;;;;21.70;26.70;;;;;;5164664;27;19937;-59
2022/03/27 11:48:20;;;;;;;;;;;21.70;26.20;;;;;;5144436;27;20327;-62
2022/03/27 11:50:46;;;;;;;;;;;21.80;26.10;;;;;;5163018;27;19926;-57
2022/03/27 11:53:12;;;;;;;;;;;21.80;25.70;;;;;;5168321;27;19922;-60
2022/03/27 11:55:39;;;;;;;;;;;21.80;25.70;;;;;;5144329;27;19951;-59
2022/03/27 11:58:07;;;;;;;;;;;21.80;25.70;;;;;;5168757;27;19996;-59
2022/03/27 12:00:34;;;;;;;;;;;21.80;25.90;;;;;;5162889;27;19923;-60
2022/03/27 12:03:00;;;;;;;;;;;21.80;25.70;;;;;;5159971;27;19931;-57
2022/03/27 12:05:33;;;;;;;;;;;21.80;25.70;;;;;;5147472;27;20305;-61
2022/03/27 12:07:59;;;;;;;;;;;21.80;25.90;;;;;;5163615;27;21290;-56
2022/03/27 12:10:26;;;;;;;;;;;21.80;25.40;;;;;;5166846;27;19923;-58
2022/03/27 12:12:56;;;;;;;;;;;21.80;25.30;;;;;;5172255;27;19923;-61
2022/03/27 12:15:22;;;;;;;;;;;21.80;25.10;;;;;;5166420;27;19923;-61
2022/03/27 12:17:47;;;;;;;;;;;21.90;24.70;;;;;;5168160;27;19986;-55
2022/03/27 12:20:15;;;;;;;;;;;21.80;24.60;;;;;;5169687;27;20345;-55
2022/03/27 12:22:42;;;;;;;;;;;21.80;24.70;;;;;;5162490;27;19926;-57
2022/03/27 12:25:17;;;;;;;;;;;21.80;24.60;;;;;;5171749;27;19945;-61
2022/03/27 12:30:33;;;;;;;;;;;22.00;24.30;;;;;;5166726;27;20013;-60
2022/03/27 12:33:01;;;;;;;;;;;21.90;24.40;;;;;;5172130;27;19986;-59
2022/03/27 12:35:28;;;;;;;;;;;21.90;24.50;;;;;;5166538;27;19923;-58
2022/03/27 12:37:53;;;;;;;;;;;22.00;24.00;;;;;;5147599;27;20381;-58
2022/03/27 12:40:19;;;;;;;;;;;22.00;23.90;;;;;;5168523;27;19979;-58
2022/03/27 12:42:46;;;;;;;;;;;22.10;23.60;;;;;;5145851;27;19961;-58
2022/03/27 12:45:33;;;;;;;;;;;22.20;23.20;;;;;;5166263;27;20119;-60
2022/03/27 12:48:13;;;;;;;;;;;22.10;22.90;;;;;;5152965;27;19923;-59
2022/03/27 12:50:43;;;;;;;;;;;22.10;22.90;;;;;;5166065;27;20263;-56
2022/03/27 12:53:13;;;;;;;;;;;22.20;22.80;;;;;;5166133;27;19929;-58
2022/03/27 12:55:49;;;;;;;;;;;22.20;22.60;;;;;;5171287;27;19923;-59
2022/03/27 12:58:16;;;;;;;;;;;22.30;22.60;;;;;;5163789;27;19943;-58
2022/03/27 13:00:43;;;;;;;;;;;22.30;22.80;;;;;;5162883;27;20311;-61
2022/03/27 13:03:19;;;;;;;;;;;22.20;22.80;;;;;;5171572;27;19929;-57
2022/03/27 13:05:58;;;;;;;;;;;22.20;22.60;;;;;;5165910;27;20305;-60
2022/03/27 13:08:39;;;;;;;;;;;22.30;22.30;;;;;;5148250;27;19922;-61
2022/03/27 13:11:12;;;;;;;;;;;22.30;22.30;;;;;;5171159;27;19934;-59
2022/03/27 13:13:37;;;;;;;;;;;22.30;22.40;;;;;;5146843;27;19973;-62
2022/03/27 13:16:36;;;;;;;;;;;22.40;22.30;;;;;;5164411;27;20068;-61
2022/03/27 13:19:06;;;;;;;;;;;22.40;22.40;;;;;;5108385;27;20338;-58
2022/03/27 13:21:35;;;;;;;;;;;22.40;22.70;;;;;;5164633;27;20045;-60
2022/03/27 13:24:03;;;;;;;;;;;22.30;22.80;;;;;;5165487;27;19929;-61
2022/03/27 13:26:28;;;;;;;;;;;22.30;22.60;;;;;;5170888;27;19926;-61
2022/03/27 13:28:54;;;;;;;;;;;22.40;22.60;;;;;;5165291;27;19922;-56
2022/03/27 13:31:21;;;;;;;;;;;22.40;22.50;;;;;;5167143;27;19927;-59
2022/03/27 13:33:47;;;;;;;;;;;22.50;22.30;;;;;;5168810;27;19926;-61
2022/03/27 13:36:13;;;;;;;;;;;22.50;22.10;;;;;;5161529;27;19926;-60
2022/03/27 13:38:39;;;;;;;;;;;22.40;21.80;;;;;;5169231;27;19933;-57
2022/03/27 13:43:49;;;;;;;;;;;22.50;22.20;;;;;;5165035;27;19929;-59
2022/03/27 13:46:15;;;;;;;;;;;22.40;22.20;;;;;;5170452;27;19927;-61
2022/03/27 13:48:41;;;;;;;;;;;22.40;22.40;;;;;;5164934;27;19923;-59
2022/03/27 13:51:07;;;;;;;;;;;22.50;22.10;;;;;;5164806;27;19971;-57
2022/03/27 13:53:33;;;;;;;;;;;22.60;21.80;;;;;;5168756;27;19931;-58
2022/03/27 13:56:01;;;;;;;;;;;22.70;21.70;;;;;;5160821;27;20026;-58
2022/03/27 13:58:27;;;;;;;;;;;22.70;21.60;;;;;;5166177;27;19923;-58
2022/03/27 14:00:53;;;;;;;;;;;22.70;21.40;;;;;;5169108;27;20305;-58
2022/03/27 14:03:20;;;;;;;;;;;22.70;21.50;;;;;;5164638;27;19926;-61
2022/03/27 14:05:46;;;;;;;;;;;22.60;21.70;;;;;;5166645;27;19923;-58
2022/03/27 14:08:12;;;;;;;;;;;22.50;21.90;;;;;;5164507;27;19923;-58
2022/03/27 14:10:38;;;;;;;;;;;22.50;22.20;;;;;;5164102;27;20342;-57
2022/03/27 14:13:04;;;;;;;;;;;22.60;22.00;;;;;;5166796;27;19933;-58
2022/03/27 14:15:30;;;;;;;;;;;22.50;22.20;;;;;;5162889;27;19923;-59
2022/03/27 14:17:55;;;;;;;;;;;22.60;21.80;;;;;;5164391;27;19922;-61
2022/03/27 14:20:21;;;;;;;;;;;22.70;21.40;;;;;;5170038;27;19926;-59
2022/03/27 14:22:47;;;;;;;;;;;22.80;21.40;;;;;;5145611;27;19923;-61
2022/03/27 14:25:13;;;;;;;;;;;22.70;21.20;;;;;;5169861;27;19981;-60
2022/03/27 14:27:40;;;;;;;;;;;22.70;21.20;;;;;;5164110;27;20014;-62